sensor_id;sensor_type;location;lat;lon;timestamp;P1;durP1;ratioP1;P2;durP2;ratioP2
49175;SDS011;35012;47.200;9.748;2023-05-10T00:01:42;2.97;;;2.73;;
49175;SDS011;35012;47.200;9.748;2023-05-10T00:04:08;4.10;;;2.50;;
49175;SDS011;35012;47.200;9.748;2023-05-10T00:06:33;1.77;;;1.57;;
49175;SDS011;35012;47.200;9.748;2023-05-10T00:08:59;2.40;;;1.10;;
49175;SDS011;35012;47.200;9.748;2023-05-10T00:11:24;1.80;;;1.00;;
49175;SDS011;35012;47.200;9.748;2023-05-10T00:13:49;3.17;;;0.90;;
49175;SDS011;35012;47.200;9.748;2023-05-10T00:16:15;4.10;;;0.80;;
49175;SDS011;35012;47.200;9.748;2023-05-10T00:18:40;1.00;;;0.90;;
49175;SDS011;35012;47.200;9.748;2023-05-10T00:21:06;1.63;;;1.10;;
49175;SDS011;35012;47.200;9.748;2023-05-10T00:23:31;1.10;;;0.70;;
49175;SDS011;35012;47.200;9.748;2023-05-10T00:25:57;1.13;;;0.40;;
49175;SDS011;35012;47.200;9.748;2023-05-10T00:28:22;2.97;;;0.77;;
49175;SDS011;35012;47.200;9.748;2023-05-10T00:30:48;1.20;;;0.70;;
49175;SDS011;35012;47.200;9.748;2023-05-10T00:33:13;1.40;;;0.67;;
49175;SDS011;35012;47.200;9.748;2023-05-10T00:35:39;1.80;;;0.60;;
49175;SDS011;35012;47.200;9.748;2023-05-10T00:38:05;1.60;;;0.60;;
49175;SDS011;35012;47.200;9.748;2023-05-10T00:40:31;0.60;;;0.60;;
49175;SDS011;35012;47.200;9.748;2023-05-10T00:42:56;1.63;;;0.50;;
49175;SDS011;35012;47.200;9.748;2023-05-10T00:45:23;0.97;;;0.60;;
49175;SDS011;35012;47.200;9.748;2023-05-10T00:47:48;1.00;;;0.40;;
49175;SDS011;35012;47.200;9.748;2023-05-10T00:50:14;0.90;;;0.40;;
49175;SDS011;35012;47.200;9.748;2023-05-10T00:52:40;1.97;;;0.40;;
49175;SDS011;35012;47.200;9.748;2023-05-10T00:55:07;2.70;;;0.40;;
49175;SDS011;35012;47.200;9.748;2023-05-10T00:57:33;0.63;;;0.40;;
49175;SDS011;35012;47.200;9.748;2023-05-10T00:59:58;0.90;;;0.40;;
49175;SDS011;35012;47.200;9.748;2023-05-10T01:02:24;1.53;;;0.47;;
49175;SDS011;35012;47.200;9.748;2023-05-10T01:04:49;2.17;;;0.37;;
49175;SDS011;35012;47.200;9.748;2023-05-10T01:07:15;1.23;;;0.40;;
49175;SDS011;35012;47.200;9.748;2023-05-10T01:09:41;1.83;;;0.63;;
49175;SDS011;35012;47.200;9.748;2023-05-10T01:12:06;2.43;;;0.40;;
49175;SDS011;35012;47.200;9.748;2023-05-10T01:14:32;1.23;;;0.40;;
49175;SDS011;35012;47.200;9.748;2023-05-10T01:16:58;0.60;;;0.30;;
49175;SDS011;35012;47.200;9.748;2023-05-10T01:19:26;0.50;;;0.47;;
49175;SDS011;35012;47.200;9.748;2023-05-10T01:22:02;2.43;;;0.40;;
49175;SDS011;35012;47.200;9.748;2023-05-10T01:25:06;3.10;;;0.50;;
49175;SDS011;35012;47.200;9.748;2023-05-10T01:35:47;5.97;;;0.87;;
49175;SDS011;35012;47.200;9.748;2023-05-10T01:38:43;1.90;;;0.43;;
49175;SDS011;35012;47.200;9.748;2023-05-10T01:41:29;2.10;;;0.50;;
49175;SDS011;35012;47.200;9.748;2023-05-10T01:44:16;1.83;;;0.50;;
49175;SDS011;35012;47.200;9.748;2023-05-10T01:46:43;3.13;;;0.50;;
49175;SDS011;35012;47.200;9.748;2023-05-10T01:49:16;2.00;;;0.50;;
49175;SDS011;35012;47.200;9.748;2023-05-10T01:51:49;2.03;;;0.50;;
49175;SDS011;35012;47.200;9.748;2023-05-10T01:54:17;2.97;;;0.60;;
49175;SDS011;35012;47.200;9.748;2023-05-10T01:56:44;1.47;;;0.43;;
49175;SDS011;35012;47.200;9.748;2023-05-10T01:59:14;1.93;;;0.60;;
49175;SDS011;35012;47.200;9.748;2023-05-10T02:01:42;3.23;;;0.50;;
49175;SDS011;35012;47.200;9.748;2023-05-10T02:04:08;2.90;;;0.63;;
49175;SDS011;35012;47.200;9.748;2023-05-10T02:06:34;3.40;;;0.70;;
49175;SDS011;35012;47.200;9.748;2023-05-10T02:09:01;3.50;;;0.80;;
49175;SDS011;35012;47.200;9.748;2023-05-10T02:11:27;4.83;;;0.80;;
49175;SDS011;35012;47.200;9.748;2023-05-10T02:13:53;2.50;;;0.60;;
49175;SDS011;35012;47.200;9.748;2023-05-10T02:16:21;2.67;;;0.53;;
49175;SDS011;35012;47.200;9.748;2023-05-10T02:18:49;2.77;;;0.70;;
49175;SDS011;35012;47.200;9.748;2023-05-10T02:21:15;3.00;;;0.80;;
49175;SDS011;35012;47.200;9.748;2023-05-10T02:23:42;2.60;;;0.60;;
49175;SDS011;35012;47.200;9.748;2023-05-10T02:26:08;2.47;;;0.70;;
49175;SDS011;35012;47.200;9.748;2023-05-10T02:28:34;1.90;;;0.70;;
49175;SDS011;35012;47.200;9.748;2023-05-10T02:31:00;2.10;;;0.70;;
49175;SDS011;35012;47.200;9.748;2023-05-10T02:33:26;1.10;;;0.73;;
49175;SDS011;35012;47.200;9.748;2023-05-10T02:35:52;1.60;;;0.70;;
49175;SDS011;35012;47.200;9.748;2023-05-10T02:38:18;1.00;;;0.70;;
49175;SDS011;35012;47.200;9.748;2023-05-10T02:40:45;1.50;;;0.60;;
49175;SDS011;35012;47.200;9.748;2023-05-10T02:43:12;1.97;;;0.80;;
49175;SDS011;35012;47.200;9.748;2023-05-10T02:45:39;3.77;;;0.70;;
49175;SDS011;35012;47.200;9.748;2023-05-10T02:48:05;4.00;;;0.70;;
49175;SDS011;35012;47.200;9.748;2023-05-10T02:50:32;1.77;;;0.50;;
49175;SDS011;35012;47.200;9.748;2023-05-10T02:53:02;1.00;;;0.50;;
49175;SDS011;35012;47.200;9.748;2023-05-10T02:55:32;2.77;;;0.60;;
49175;SDS011;35012;47.200;9.748;2023-05-10T02:58:02;5.30;;;0.70;;
49175;SDS011;35012;47.200;9.748;2023-05-10T03:00:28;0.90;;;0.40;;
49175;SDS011;35012;47.200;9.748;2023-05-10T03:02:53;0.50;;;0.37;;
49175;SDS011;35012;47.200;9.748;2023-05-10T03:05:19;0.83;;;0.60;;
49175;SDS011;35012;47.200;9.748;2023-05-10T03:07:45;2.27;;;0.60;;
49175;SDS011;35012;47.200;9.748;2023-05-10T03:10:11;1.13;;;0.50;;
49175;SDS011;35012;47.200;9.748;2023-05-10T03:12:56;0.83;;;0.60;;
49175;SDS011;35012;47.200;9.748;2023-05-10T03:15:42;1.23;;;0.50;;
49175;SDS011;35012;47.200;9.748;2023-05-10T03:18:18;1.17;;;0.60;;
49175;SDS011;35012;47.200;9.748;2023-05-10T03:20:48;3.17;;;0.73;;
49175;SDS011;35012;47.200;9.748;2023-05-10T03:25:43;2.57;;;0.70;;
49175;SDS011;35012;47.200;9.748;2023-05-10T03:28:09;1.20;;;0.70;;
49175;SDS011;35012;47.200;9.748;2023-05-10T03:30:35;1.70;;;0.60;;
49175;SDS011;35012;47.200;9.748;2023-05-10T03:33:05;4.63;;;1.10;;
49175;SDS011;35012;47.200;9.748;2023-05-10T03:35:31;1.20;;;0.70;;
49175;SDS011;35012;47.200;9.748;2023-05-10T03:37:56;2.13;;;0.70;;
49175;SDS011;35012;47.200;9.748;2023-05-10T03:40:22;2.93;;;0.60;;
49175;SDS011;35012;47.200;9.748;2023-05-10T03:42:48;1.73;;;0.63;;
49175;SDS011;35012;47.200;9.748;2023-05-10T03:45:14;2.43;;;0.63;;
49175;SDS011;35012;47.200;9.748;2023-05-10T03:47:40;3.10;;;0.60;;
49175;SDS011;35012;47.200;9.748;2023-05-10T03:50:06;0.63;;;0.60;;
49175;SDS011;35012;47.200;9.748;2023-05-10T03:52:32;1.00;;;0.70;;
49175;SDS011;35012;47.200;9.748;2023-05-10T03:54:57;0.90;;;0.70;;
49175;SDS011;35012;47.200;9.748;2023-05-10T03:57:23;1.10;;;0.70;;
49175;SDS011;35012;47.200;9.748;2023-05-10T03:59:48;0.90;;;0.80;;
49175;SDS011;35012;47.200;9.748;2023-05-10T04:02:14;2.10;;;0.70;;
49175;SDS011;35012;47.200;9.748;2023-05-10T04:04:39;0.90;;;0.67;;
49175;SDS011;35012;47.200;9.748;2023-05-10T04:07:05;0.60;;;0.60;;
49175;SDS011;35012;47.200;9.748;2023-05-10T04:09:30;0.87;;;0.73;;
49175;SDS011;35012;47.200;9.748;2023-05-10T04:11:56;4.00;;;0.70;;
49175;SDS011;35012;47.200;9.748;2023-05-10T04:14:21;1.00;;;0.70;;
49175;SDS011;35012;47.200;9.748;2023-05-10T04:16:47;2.50;;;0.70;;
49175;SDS011;35012;47.200;9.748;2023-05-10T04:19:12;1.37;;;0.60;;
49175;SDS011;35012;47.200;9.748;2023-05-10T04:21:38;1.93;;;0.83;;
49175;SDS011;35012;47.200;9.748;2023-05-10T04:24:03;5.60;;;1.30;;
49175;SDS011;35012;47.200;9.748;2023-05-10T04:26:29;9.23;;;1.00;;
49175;SDS011;35012;47.200;9.748;2023-05-10T04:28:55;1.27;;;0.93;;
49175;SDS011;35012;47.200;9.748;2023-05-10T04:31:20;4.93;;;1.70;;
49175;SDS011;35012;47.200;9.748;2023-05-10T04:33:46;3.27;;;1.27;;
49175;SDS011;35012;47.200;9.748;2023-05-10T04:36:12;4.33;;;1.30;;
49175;SDS011;35012;47.200;9.748;2023-05-10T04:38:37;1.33;;;1.00;;
49175;SDS011;35012;47.200;9.748;2023-05-10T04:41:07;1.20;;;1.03;;
49175;SDS011;35012;47.200;9.748;2023-05-10T04:43:33;1.60;;;1.10;;
49175;SDS011;35012;47.200;9.748;2023-05-10T04:45:59;6.10;;;1.20;;
49175;SDS011;35012;47.200;9.748;2023-05-10T04:48:24;2.73;;;1.00;;
49175;SDS011;35012;47.200;9.748;2023-05-10T04:50:50;2.20;;;1.40;;
49175;SDS011;35012;47.200;9.748;2023-05-10T04:53:15;4.07;;;1.67;;
49175;SDS011;35012;47.200;9.748;2023-05-10T04:55:41;2.60;;;2.40;;
49175;SDS011;35012;47.200;9.748;2023-05-10T04:58:08;4.63;;;3.70;;
49175;SDS011;35012;47.200;9.748;2023-05-10T05:00:34;4.43;;;3.07;;
49175;SDS011;35012;47.200;9.748;2023-05-10T05:03:00;2.43;;;2.20;;
49175;SDS011;35012;47.200;9.748;2023-05-10T05:05:25;2.90;;;2.30;;
49175;SDS011;35012;47.200;9.748;2023-05-10T05:07:51;4.07;;;2.10;;
49175;SDS011;35012;47.200;9.748;2023-05-10T05:10:16;4.43;;;2.60;;
49175;SDS011;35012;47.200;9.748;2023-05-10T05:12:42;4.27;;;2.40;;
49175;SDS011;35012;47.200;9.748;2023-05-10T05:15:07;3.17;;;1.80;;
49175;SDS011;35012;47.200;9.748;2023-05-10T05:17:34;4.43;;;1.93;;
49175;SDS011;35012;47.200;9.748;2023-05-10T05:20:00;2.30;;;1.70;;
49175;SDS011;35012;47.200;9.748;2023-05-10T05:22:25;1.90;;;1.70;;
49175;SDS011;35012;47.200;9.748;2023-05-10T05:24:56;2.87;;;2.10;;
49175;SDS011;35012;47.200;9.748;2023-05-10T05:27:23;4.10;;;2.60;;
49175;SDS011;35012;47.200;9.748;2023-05-10T05:29:52;2.33;;;2.00;;
49175;SDS011;35012;47.200;9.748;2023-05-10T05:32:18;4.43;;;1.83;;
49175;SDS011;35012;47.200;9.748;2023-05-10T05:34:44;4.17;;;2.90;;
49175;SDS011;35012;47.200;9.748;2023-05-10T05:37:17;3.53;;;2.67;;
49175;SDS011;35012;47.200;9.748;2023-05-10T05:39:44;3.07;;;2.33;;
49175;SDS011;35012;47.200;9.748;2023-05-10T05:42:10;2.93;;;1.97;;
49175;SDS011;35012;47.200;9.748;2023-05-10T05:44:36;2.57;;;1.70;;
49175;SDS011;35012;47.200;9.748;2023-05-10T05:47:01;2.70;;;1.60;;
49175;SDS011;35012;47.200;9.748;2023-05-10T05:49:27;4.97;;;1.93;;
49175;SDS011;35012;47.200;9.748;2023-05-10T05:51:53;2.77;;;2.33;;
49175;SDS011;35012;47.200;9.748;2023-05-10T05:54:18;3.40;;;2.40;;
49175;SDS011;35012;47.200;9.748;2023-05-10T05:56:44;2.80;;;2.50;;
49175;SDS011;35012;47.200;9.748;2023-05-10T05:59:09;3.27;;;2.80;;
49175;SDS011;35012;47.200;9.748;2023-05-10T06:01:35;2.40;;;2.20;;
49175;SDS011;35012;47.200;9.748;2023-05-10T06:04:01;2.97;;;1.93;;
49175;SDS011;35012;47.200;9.748;2023-05-10T06:06:26;3.53;;;2.10;;
49175;SDS011;35012;47.200;9.748;2023-05-10T06:08:52;2.50;;;1.77;;
49175;SDS011;35012;47.200;9.748;2023-05-10T06:11:18;3.73;;;2.10;;
49175;SDS011;35012;47.200;9.748;2023-05-10T06:13:43;4.23;;;2.70;;
49175;SDS011;35012;47.200;9.748;2023-05-10T06:16:09;4.43;;;3.13;;
49175;SDS011;35012;47.200;9.748;2023-05-10T06:18:35;3.30;;;3.00;;
49175;SDS011;35012;47.200;9.748;2023-05-10T06:21:01;3.70;;;3.37;;
49175;SDS011;35012;47.200;9.748;2023-05-10T06:23:26;5.00;;;3.00;;
49175;SDS011;35012;47.200;9.748;2023-05-10T06:25:52;4.93;;;3.00;;
49175;SDS011;35012;47.200;9.748;2023-05-10T06:28:17;2.70;;;2.50;;
49175;SDS011;35012;47.200;9.748;2023-05-10T06:30:43;2.87;;;2.67;;
49175;SDS011;35012;47.200;9.748;2023-05-10T06:33:09;2.83;;;2.57;;
49175;SDS011;35012;47.200;9.748;2023-05-10T06:35:35;2.20;;;2.00;;
49175;SDS011;35012;47.200;9.748;2023-05-10T06:38:01;4.60;;;1.90;;
49175;SDS011;35012;47.200;9.748;2023-05-10T06:40:27;7.93;;;5.70;;
49175;SDS011;35012;47.200;9.748;2023-05-10T06:42:52;5.23;;;4.73;;
49175;SDS011;35012;47.200;9.748;2023-05-10T06:45:18;4.37;;;3.70;;
49175;SDS011;35012;47.200;9.748;2023-05-10T06:47:43;5.87;;;2.87;;
49175;SDS011;35012;47.200;9.748;2023-05-10T06:50:09;3.60;;;2.20;;
49175;SDS011;35012;47.200;9.748;2023-05-10T06:52:38;2.63;;;2.37;;
49175;SDS011;35012;47.200;9.748;2023-05-10T06:55:04;3.07;;;2.40;;
49175;SDS011;35012;47.200;9.748;2023-05-10T06:57:30;3.60;;;2.33;;
49175;SDS011;35012;47.200;9.748;2023-05-10T06:59:57;3.20;;;2.50;;
49175;SDS011;35012;47.200;9.748;2023-05-10T07:02:23;3.93;;;2.97;;
49175;SDS011;35012;47.200;9.748;2023-05-10T07:04:49;1.70;;;1.50;;
49175;SDS011;35012;47.200;9.748;2023-05-10T07:07:15;1.83;;;1.00;;
49175;SDS011;35012;47.200;9.748;2023-05-10T07:09:40;1.27;;;0.73;;
49175;SDS011;35012;47.200;9.748;2023-05-10T07:12:06;1.77;;;0.90;;
49175;SDS011;35012;47.200;9.748;2023-05-10T07:14:31;1.80;;;1.00;;
49175;SDS011;35012;47.200;9.748;2023-05-10T07:16:57;2.43;;;0.90;;
49175;SDS011;35012;47.200;9.748;2023-05-10T07:19:22;2.57;;;0.80;;
49175;SDS011;35012;47.200;9.748;2023-05-10T07:21:48;0.80;;;0.60;;
49175;SDS011;35012;47.200;9.748;2023-05-10T07:24:13;3.73;;;1.40;;
49175;SDS011;35012;47.200;9.748;2023-05-10T07:26:39;2.73;;;1.80;;
49175;SDS011;35012;47.200;9.748;2023-05-10T07:29:04;1.63;;;1.43;;
49175;SDS011;35012;47.200;9.748;2023-05-10T07:31:30;3.00;;;1.33;;
49175;SDS011;35012;47.200;9.748;2023-05-10T07:33:55;6.50;;;1.43;;
49175;SDS011;35012;47.200;9.748;2023-05-10T07:36:21;2.63;;;1.23;;
49175;SDS011;35012;47.200;9.748;2023-05-10T07:38:46;3.73;;;1.07;;
49175;SDS011;35012;47.200;9.748;2023-05-10T07:41:12;2.47;;;1.30;;
49175;SDS011;35012;47.200;9.748;2023-05-10T07:43:37;2.60;;;1.20;;
49175;SDS011;35012;47.200;9.748;2023-05-10T07:46:03;1.97;;;1.37;;
49175;SDS011;35012;47.200;9.748;2023-05-10T07:48:28;2.30;;;1.10;;
49175;SDS011;35012;47.200;9.748;2023-05-10T07:50:54;1.77;;;1.13;;
49175;SDS011;35012;47.200;9.748;2023-05-10T07:53:19;1.40;;;1.03;;
49175;SDS011;35012;47.200;9.748;2023-05-10T07:55:57;1.50;;;0.80;;
49175;SDS011;35012;47.200;9.748;2023-05-10T07:58:25;0.77;;;0.70;;
49175;SDS011;35012;47.200;9.748;2023-05-10T08:00:51;1.60;;;0.80;;
49175;SDS011;35012;47.200;9.748;2023-05-10T08:03:17;1.53;;;0.60;;
49175;SDS011;35012;47.200;9.748;2023-05-10T08:05:42;1.77;;;0.60;;
49175;SDS011;35012;47.200;9.748;2023-05-10T08:08:08;2.53;;;0.73;;
49175;SDS011;35012;47.200;9.748;2023-05-10T08:10:33;2.93;;;0.70;;
49175;SDS011;35012;47.200;9.748;2023-05-10T08:12:59;1.30;;;0.70;;
49175;SDS011;35012;47.200;9.748;2023-05-10T08:15:24;2.10;;;0.60;;
49175;SDS011;35012;47.200;9.748;2023-05-10T08:17:53;12.77;;;1.37;;
49175;SDS011;35012;47.200;9.748;2023-05-10T08:20:19;2.30;;;0.57;;
49175;SDS011;35012;47.200;9.748;2023-05-10T08:22:45;1.60;;;0.73;;
49175;SDS011;35012;47.200;9.748;2023-05-10T08:25:11;1.53;;;0.90;;
49175;SDS011;35012;47.200;9.748;2023-05-10T08:27:36;1.93;;;0.90;;
49175;SDS011;35012;47.200;9.748;2023-05-10T08:30:02;2.60;;;0.93;;
49175;SDS011;35012;47.200;9.748;2023-05-10T08:32:28;2.20;;;1.00;;
49175;SDS011;35012;47.200;9.748;2023-05-10T08:34:53;2.30;;;0.80;;
49175;SDS011;35012;47.200;9.748;2023-05-10T08:37:19;1.30;;;0.80;;
49175;SDS011;35012;47.200;9.748;2023-05-10T08:39:45;3.43;;;1.50;;
49175;SDS011;35012;47.200;9.748;2023-05-10T08:42:12;2.40;;;1.00;;
49175;SDS011;35012;47.200;9.748;2023-05-10T08:44:42;1.17;;;1.00;;
49175;SDS011;35012;47.200;9.748;2023-05-10T08:47:07;1.23;;;0.80;;
49175;SDS011;35012;47.200;9.748;2023-05-10T08:49:34;3.17;;;0.80;;
49175;SDS011;35012;47.200;9.748;2023-05-10T08:52:02;1.37;;;0.90;;
49175;SDS011;35012;47.200;9.748;2023-05-10T08:54:29;2.07;;;1.13;;
49175;SDS011;35012;47.200;9.748;2023-05-10T08:56:56;1.53;;;1.33;;
49175;SDS011;35012;47.200;9.748;2023-05-10T08:59:22;1.50;;;1.33;;
49175;SDS011;35012;47.200;9.748;2023-05-10T09:01:47;3.60;;;1.00;;
49175;SDS011;35012;47.200;9.748;2023-05-10T09:04:14;1.70;;;0.77;;
49175;SDS011;35012;47.200;9.748;2023-05-10T09:06:39;1.90;;;0.93;;
49175;SDS011;35012;47.200;9.748;2023-05-10T09:09:06;1.60;;;1.43;;
49175;SDS011;35012;47.200;9.748;2023-05-10T09:11:31;3.97;;;2.60;;
49175;SDS011;35012;47.200;9.748;2023-05-10T09:13:57;2.40;;;2.20;;
49175;SDS011;35012;47.200;9.748;2023-05-10T09:16:23;0.93;;;0.83;;
49175;SDS011;35012;47.200;9.748;2023-05-10T09:18:49;0.83;;;0.70;;
49175;SDS011;35012;47.200;9.748;2023-05-10T09:21:14;1.30;;;0.60;;
49175;SDS011;35012;47.200;9.748;2023-05-10T09:23:46;0.63;;;0.47;;
49175;SDS011;35012;47.200;9.748;2023-05-10T09:26:12;1.47;;;0.90;;
49175;SDS011;35012;47.200;9.748;2023-05-10T09:28:51;2.40;;;0.60;;
49175;SDS011;35012;47.200;9.748;2023-05-10T09:31:17;0.40;;;0.40;;
49175;SDS011;35012;47.200;9.748;2023-05-10T09:33:46;0.50;;;0.40;;
49175;SDS011;35012;47.200;9.748;2023-05-10T09:36:13;0.83;;;0.40;;
49175;SDS011;35012;47.200;9.748;2023-05-10T09:38:57;0.57;;;0.40;;
49175;SDS011;35012;47.200;9.748;2023-05-10T09:41:23;1.07;;;0.40;;
49175;SDS011;35012;47.200;9.748;2023-05-10T09:43:49;0.60;;;0.47;;
49175;SDS011;35012;47.200;9.748;2023-05-10T09:46:15;0.80;;;0.50;;
49175;SDS011;35012;47.200;9.748;2023-05-10T09:48:42;0.90;;;0.60;;
49175;SDS011;35012;47.200;9.748;2023-05-10T09:51:18;0.50;;;0.40;;
49175;SDS011;35012;47.200;9.748;2023-05-10T09:53:47;2.30;;;0.50;;
49175;SDS011;35012;47.200;9.748;2023-05-10T09:56:32;0.83;;;0.47;;
49175;SDS011;35012;47.200;9.748;2023-05-10T09:59:02;2.50;;;0.57;;
49175;SDS011;35012;47.200;9.748;2023-05-10T10:01:28;1.00;;;0.47;;
49175;SDS011;35012;47.200;9.748;2023-05-10T10:03:54;0.60;;;0.40;;
49175;SDS011;35012;47.200;9.748;2023-05-10T10:06:22;0.90;;;0.40;;
49175;SDS011;35012;47.200;9.748;2023-05-10T10:08:48;0.30;;;0.20;;
49175;SDS011;35012;47.200;9.748;2023-05-10T10:11:14;0.93;;;0.60;;
49175;SDS011;35012;47.200;9.748;2023-05-10T10:13:39;0.50;;;0.40;;
49175;SDS011;35012;47.200;9.748;2023-05-10T10:16:05;0.90;;;0.40;;
49175;SDS011;35012;47.200;9.748;2023-05-10T10:18:31;1.70;;;0.53;;
49175;SDS011;35012;47.200;9.748;2023-05-10T10:20:56;0.40;;;0.30;;
49175;SDS011;35012;47.200;9.748;2023-05-10T10:23:23;1.07;;;0.40;;
49175;SDS011;35012;47.200;9.748;2023-05-10T10:25:48;0.30;;;0.20;;
49175;SDS011;35012;47.200;9.748;2023-05-10T10:30:43;0.60;;;0.40;;
49175;SDS011;35012;47.200;9.748;2023-05-10T10:35:58;1.93;;;0.80;;
49175;SDS011;35012;47.200;9.748;2023-05-10T10:38:24;3.57;;;1.67;;
49175;SDS011;35012;47.200;9.748;2023-05-10T10:41:01;4.43;;;2.40;;
49175;SDS011;35012;47.200;9.748;2023-05-10T10:43:36;2.30;;;0.93;;
49175;SDS011;35012;47.200;9.748;2023-05-10T10:46:15;0.53;;;0.30;;
49175;SDS011;35012;47.200;9.748;2023-05-10T10:48:49;0.87;;;0.30;;
49175;SDS011;35012;47.200;9.748;2023-05-10T10:51:16;1.53;;;0.30;;
49175;SDS011;35012;47.200;9.748;2023-05-10T10:53:42;1.33;;;0.60;;
49175;SDS011;35012;47.200;9.748;2023-05-10T10:56:08;1.70;;;0.40;;
49175;SDS011;35012;47.200;9.748;2023-05-10T10:58:36;1.97;;;0.50;;
49175;SDS011;35012;47.200;9.748;2023-05-10T11:01:12;0.50;;;0.50;;
49175;SDS011;35012;47.200;9.748;2023-05-10T11:04:16;2.73;;;1.10;;
49175;SDS011;35012;47.200;9.748;2023-05-10T11:06:42;4.33;;;3.93;;
49175;SDS011;35012;47.200;9.748;2023-05-10T11:09:08;1.67;;;0.90;;
49175;SDS011;35012;47.200;9.748;2023-05-10T11:11:35;0.80;;;0.60;;
49175;SDS011;35012;47.200;9.748;2023-05-10T11:14:07;1.37;;;0.70;;
49175;SDS011;35012;47.200;9.748;2023-05-10T11:16:42;0.53;;;0.50;;
49175;SDS011;35012;47.200;9.748;2023-05-10T11:19:12;1.43;;;0.70;;
49175;SDS011;35012;47.200;9.748;2023-05-10T11:21:46;1.03;;;0.73;;
49175;SDS011;35012;47.200;9.748;2023-05-10T11:24:14;1.90;;;1.60;;
49175;SDS011;35012;47.200;9.748;2023-05-10T11:26:40;1.00;;;0.60;;
49175;SDS011;35012;47.200;9.748;2023-05-10T11:29:06;1.20;;;1.00;;
49175;SDS011;35012;47.200;9.748;2023-05-10T11:31:32;0.73;;;0.50;;
49175;SDS011;35012;47.200;9.748;2023-05-10T11:33:58;1.43;;;0.90;;
49175;SDS011;35012;47.200;9.748;2023-05-10T11:36:25;1.07;;;0.60;;
49175;SDS011;35012;47.200;9.748;2023-05-10T11:38:52;1.67;;;0.50;;
49175;SDS011;35012;47.200;9.748;2023-05-10T11:41:19;0.33;;;0.30;;
49175;SDS011;35012;47.200;9.748;2023-05-10T11:43:51;0.63;;;0.40;;
49175;SDS011;35012;47.200;9.748;2023-05-10T11:46:19;1.43;;;0.50;;
49175;SDS011;35012;47.200;9.748;2023-05-10T11:48:46;2.10;;;0.50;;
49175;SDS011;35012;47.200;9.748;2023-05-10T11:51:12;0.40;;;0.27;;
49175;SDS011;35012;47.200;9.748;2023-05-10T11:53:38;0.90;;;0.40;;
49175;SDS011;35012;47.200;9.748;2023-05-10T11:56:09;0.57;;;0.30;;
49175;SDS011;35012;47.200;9.748;2023-05-10T11:58:36;1.53;;;0.50;;
49175;SDS011;35012;47.200;9.748;2023-05-10T12:01:03;0.80;;;0.50;;
49175;SDS011;35012;47.200;9.748;2023-05-10T12:03:30;1.33;;;0.60;;
49175;SDS011;35012;47.200;9.748;2023-05-10T12:05:56;0.50;;;0.40;;
49175;SDS011;35012;47.200;9.748;2023-05-10T12:08:23;0.60;;;0.40;;
49175;SDS011;35012;47.200;9.748;2023-05-10T12:10:51;0.70;;;0.30;;
49175;SDS011;35012;47.200;9.748;2023-05-10T12:13:18;0.60;;;0.37;;
49175;SDS011;35012;47.200;9.748;2023-05-10T12:15:45;1.17;;;0.40;;
49175;SDS011;35012;47.200;9.748;2023-05-10T12:18:11;2.03;;;0.30;;
49175;SDS011;35012;47.200;9.748;2023-05-10T12:20:37;0.33;;;0.20;;
49175;SDS011;35012;47.200;9.748;2023-05-10T12:23:03;0.80;;;0.33;;
49175;SDS011;35012;47.200;9.748;2023-05-10T12:25:31;0.43;;;0.30;;
49175;SDS011;35012;47.200;9.748;2023-05-10T12:27:58;2.43;;;0.60;;
49175;SDS011;35012;47.200;9.748;2023-05-10T12:30:28;2.20;;;0.87;;
49175;SDS011;35012;47.200;9.748;2023-05-10T12:35:38;1.73;;;0.80;;
49175;SDS011;35012;47.200;9.748;2023-05-10T12:40:51;0.90;;;0.60;;
49175;SDS011;35012;47.200;9.748;2023-05-10T12:43:16;0.83;;;0.60;;
49175;SDS011;35012;47.200;9.748;2023-05-10T12:45:41;1.13;;;0.50;;
49175;SDS011;35012;47.200;9.748;2023-05-10T12:48:07;1.23;;;0.70;;
49175;SDS011;35012;47.200;9.748;2023-05-10T12:50:32;1.90;;;0.50;;
49175;SDS011;35012;47.200;9.748;2023-05-10T12:52:58;0.80;;;0.50;;
49175;SDS011;35012;47.200;9.748;2023-05-10T12:55:23;1.07;;;0.50;;
49175;SDS011;35012;47.200;9.748;2023-05-10T12:57:49;1.27;;;0.80;;
49175;SDS011;35012;47.200;9.748;2023-05-10T13:00:15;1.43;;;0.50;;
49175;SDS011;35012;47.200;9.748;2023-05-10T13:02:40;0.67;;;0.40;;
49175;SDS011;35012;47.200;9.748;2023-05-10T13:05:06;0.70;;;0.40;;
49175;SDS011;35012;47.200;9.748;2023-05-10T13:07:32;1.27;;;0.43;;
49175;SDS011;35012;47.200;9.748;2023-05-10T13:09:57;1.00;;;0.50;;
49175;SDS011;35012;47.200;9.748;2023-05-10T13:12:23;0.83;;;0.40;;
49175;SDS011;35012;47.200;9.748;2023-05-10T13:14:48;1.17;;;0.47;;
49175;SDS011;35012;47.200;9.748;2023-05-10T13:17:13;1.03;;;0.30;;
49175;SDS011;35012;47.200;9.748;2023-05-10T13:19:39;0.87;;;0.67;;
49175;SDS011;35012;47.200;9.748;2023-05-10T13:22:04;1.53;;;0.90;;
49175;SDS011;35012;47.200;9.748;2023-05-10T13:24:30;1.57;;;0.70;;
49175;SDS011;35012;47.200;9.748;2023-05-10T13:26:55;1.87;;;0.60;;
49175;SDS011;35012;47.200;9.748;2023-05-10T13:29:21;0.80;;;0.50;;
49175;SDS011;35012;47.200;9.748;2023-05-10T13:31:48;1.07;;;0.70;;
49175;SDS011;35012;47.200;9.748;2023-05-10T13:34:14;1.20;;;0.60;;
49175;SDS011;35012;47.200;9.748;2023-05-10T13:36:46;1.30;;;0.57;;
49175;SDS011;35012;47.200;9.748;2023-05-10T13:39:14;0.60;;;0.40;;
49175;SDS011;35012;47.200;9.748;2023-05-10T13:41:40;0.93;;;0.33;;
49175;SDS011;35012;47.200;9.748;2023-05-10T13:44:05;0.53;;;0.53;;
49175;SDS011;35012;47.200;9.748;2023-05-10T13:46:30;0.93;;;0.60;;
49175;SDS011;35012;47.200;9.748;2023-05-10T13:48:56;2.37;;;1.00;;
49175;SDS011;35012;47.200;9.748;2023-05-10T13:51:22;1.23;;;0.83;;
49175;SDS011;35012;47.200;9.748;2023-05-10T13:53:50;2.43;;;0.90;;
49175;SDS011;35012;47.200;9.748;2023-05-10T13:56:17;2.50;;;0.83;;
49175;SDS011;35012;47.200;9.748;2023-05-10T13:58:42;2.60;;;0.80;;
49175;SDS011;35012;47.200;9.748;2023-05-10T14:01:08;1.17;;;0.87;;
49175;SDS011;35012;47.200;9.748;2023-05-10T14:03:33;1.40;;;0.77;;
49175;SDS011;35012;47.200;9.748;2023-05-10T14:05:59;1.90;;;0.93;;
49175;SDS011;35012;47.200;9.748;2023-05-10T14:08:25;0.93;;;0.70;;
49175;SDS011;35012;47.200;9.748;2023-05-10T14:10:54;1.50;;;0.80;;
49175;SDS011;35012;47.200;9.748;2023-05-10T14:13:23;1.03;;;0.70;;
49175;SDS011;35012;47.200;9.748;2023-05-10T14:15:53;1.40;;;0.80;;
49175;SDS011;35012;47.200;9.748;2023-05-10T14:18:19;1.83;;;0.67;;
49175;SDS011;35012;47.200;9.748;2023-05-10T14:20:44;1.40;;;0.50;;
49175;SDS011;35012;47.200;9.748;2023-05-10T14:23:10;2.30;;;0.80;;
49175;SDS011;35012;47.200;9.748;2023-05-10T14:25:35;1.17;;;0.63;;
49175;SDS011;35012;47.200;9.748;2023-05-10T14:28:01;2.97;;;0.80;;
49175;SDS011;35012;47.200;9.748;2023-05-10T14:30:26;1.00;;;0.70;;
49175;SDS011;35012;47.200;9.748;2023-05-10T14:32:53;0.83;;;0.60;;
49175;SDS011;35012;47.200;9.748;2023-05-10T14:35:23;2.67;;;0.93;;
49175;SDS011;35012;47.200;9.748;2023-05-10T14:37:50;3.47;;;2.50;;
49175;SDS011;35012;47.200;9.748;2023-05-10T14:40:17;4.33;;;3.93;;
49175;SDS011;35012;47.200;9.748;2023-05-10T14:42:43;3.70;;;3.33;;
49175;SDS011;35012;47.200;9.748;2023-05-10T14:45:10;2.03;;;1.63;;
49175;SDS011;35012;47.200;9.748;2023-05-10T14:47:38;1.60;;;1.23;;
49175;SDS011;35012;47.200;9.748;2023-05-10T14:50:05;2.00;;;1.47;;
49175;SDS011;35012;47.200;9.748;2023-05-10T14:52:32;3.07;;;1.23;;
49175;SDS011;35012;47.200;9.748;2023-05-10T14:54:57;2.40;;;0.90;;
49175;SDS011;35012;47.200;9.748;2023-05-10T14:57:24;2.73;;;1.10;;
49175;SDS011;35012;47.200;9.748;2023-05-10T14:59:49;2.50;;;1.00;;
49175;SDS011;35012;47.200;9.748;2023-05-10T15:02:15;3.43;;;1.10;;
49175;SDS011;35012;47.200;9.748;2023-05-10T15:04:41;1.70;;;1.07;;
49175;SDS011;35012;47.200;9.748;2023-05-10T15:07:06;2.83;;;0.90;;
49175;SDS011;35012;47.200;9.748;2023-05-10T15:09:32;1.10;;;1.00;;